Robertson, Missouri
Current Conditions -  °F | °C
As of 1:51 AM on Monday 22 Dec 2014 (Local Time) from KSTL Reporting Station
Overcast Overcast  
Wind Chill: 38°   Ceiling: 5000
Heat Index: 43°   Visibility: 10mi
Dew Point: 31°   Wind: 9mph
Humidity: 62%   Direction: 130°SE
Pressure: 29.9"   Gusts: NA
Location:  38.7849°N, 90.3852°W
Report Text: KSTL 220751Z 13008KT 10SM OVC050 06/M01 A2990 RMK AO2 SLP128 T00611006
Loading
Personal Weather Stations






























Interactive Weather Map New forecast layout! Learn more

10-Day Weather Forecast

Advertisements
Track Severe Weather on mobile